createdAt,value
2023-11-18T00:00:10.261Z,96561.00
2023-11-18T00:01:10.280Z,96559.00
2023-11-18T00:02:10.481Z,96560.00
2023-11-18T00:03:10.436Z,96560.00
2023-11-18T00:04:10.525Z,96559.00
2023-11-18T00:05:10.496Z,96555.00
2023-11-18T00:06:10.543Z,96554.00
2023-11-18T00:07:10.587Z,96556.00
2023-11-18T00:08:10.657Z,96555.00
2023-11-18T00:09:10.706Z,96556.00
2023-11-18T00:10:10.744Z,96557.00
2023-11-18T00:11:10.785Z,96559.00
2023-11-18T00:12:10.859Z,96558.00
2023-11-18T00:13:10.888Z,96561.00
2023-11-18T00:14:10.958Z,96565.00
2023-11-18T00:15:10.984Z,96564.00
2023-11-18T00:16:11.114Z,96567.00
2023-11-18T00:17:11.213Z,96571.00
2023-11-18T00:18:11.196Z,96574.00
2023-11-18T00:19:11.185Z,96575.00
2023-11-18T00:20:11.272Z,96579.00
2023-11-18T00:21:11.287Z,96578.00
2023-11-18T00:22:11.341Z,96579.00
2023-11-18T00:23:11.380Z,96582.00
2023-11-18T00:24:11.445Z,96582.00
2023-11-18T00:25:11.496Z,96580.00
2023-11-18T00:26:11.586Z,96579.00
2023-11-18T00:27:11.603Z,96577.00
2023-11-18T00:28:11.659Z,96575.00
2023-11-18T00:29:11.683Z,96576.00
2023-11-18T00:30:11.746Z,96569.00
2023-11-18T00:31:11.877Z,96565.00
2023-11-18T00:32:12.091Z,96567.00
2023-11-18T00:33:11.999Z,96567.00
2023-11-18T00:34:11.956Z,96570.00
2023-11-18T00:35:12.128Z,96571.00
2023-11-18T00:36:12.054Z,96572.00
2023-11-18T00:37:17.108Z,96575.00
2023-11-18T00:38:12.094Z,96573.00
2023-11-18T00:39:12.069Z,96573.00
2023-11-18T00:40:12.074Z,96572.00
2023-11-18T00:41:12.086Z,96572.00
2023-11-18T00:42:12.045Z,96570.00
2023-11-18T00:43:12.038Z,96573.00
2023-11-18T00:44:12.032Z,96574.00
2023-11-18T00:45:12.027Z,96575.00
2023-11-18T00:46:12.043Z,96577.00
2023-11-18T00:47:12.137Z,96574.00
2023-11-18T00:48:12.057Z,96577.00
2023-11-18T00:49:12.016Z,96577.00
2023-11-18T00:50:12.189Z,96578.00
2023-11-18T00:51:11.963Z,96578.00
2023-11-18T00:52:11.973Z,96579.00
2023-11-18T00:53:11.955Z,96583.00
2023-11-18T00:54:11.952Z,96584.00
2023-11-18T00:55:11.967Z,96585.00
2023-11-18T00:56:11.938Z,96584.00
2023-11-18T00:57:11.912Z,96587.00
2023-11-18T00:58:16.933Z,96586.00
2023-11-18T00:59:11.938Z,96588.00
2023-11-18T01:00:11.901Z,96589.00
2023-11-18T01:01:11.963Z,96593.00
2023-11-18T01:02:12.260Z,96591.00
2023-11-18T01:03:12.003Z,96591.00
2023-11-18T01:04:11.859Z,96591.00
2023-11-18T01:05:11.883Z,96593.00
2023-11-18T01:06:11.834Z,96595.00
2023-11-18T01:07:11.845Z,96597.00
2023-11-18T01:08:11.825Z,96595.00
2023-11-18T01:09:11.817Z,96598.00
2023-11-18T01:10:11.811Z,96596.00
2023-11-18T01:11:11.790Z,96595.00
2023-11-18T01:12:11.806Z,96594.00
2023-11-18T01:13:11.765Z,96596.00
2023-11-18T01:14:11.829Z,96597.00
2023-11-18T01:15:11.826Z,96597.00
2023-11-18T01:16:11.754Z,96597.00
2023-11-18T01:17:11.740Z,96599.00
2023-11-18T01:18:11.798Z,96597.00
2023-11-18T01:19:11.748Z,96600.00
2023-11-18T01:20:11.734Z,96601.00
2023-11-18T01:21:11.722Z,96600.00
2023-11-18T01:22:11.702Z,96599.00
2023-11-18T01:23:11.696Z,96598.00
2023-11-18T01:24:11.709Z,96599.00
2023-11-18T01:25:11.684Z,96598.00
2023-11-18T01:26:11.660Z,96598.00
2023-11-18T01:27:11.659Z,96599.00
2023-11-18T01:28:11.642Z,96599.00
2023-11-18T01:29:11.638Z,96599.00
2023-11-18T01:30:11.654Z,96601.00
2023-11-18T01:31:11.661Z,96604.00
2023-11-18T01:32:11.710Z,96607.00
2023-11-18T01:33:11.703Z,96607.00
2023-11-18T01:34:11.611Z,96609.00
2023-11-18T01:35:11.668Z,96609.00
2023-11-18T01:36:11.586Z,96606.00
2023-11-18T01:37:11.559Z,96606.00
2023-11-18T01:38:11.562Z,96605.00
2023-11-18T01:39:11.552Z,96605.00
2023-11-18T01:40:11.555Z,96604.00
2023-11-18T01:41:11.528Z,96605.00
2023-11-18T01:42:11.524Z,96604.00
2023-11-18T01:43:11.505Z,96604.00
2023-11-18T01:44:11.510Z,96602.00
2023-11-18T01:45:11.518Z,96601.00
2023-11-18T01:46:11.906Z,96602.00
2023-11-18T01:47:11.494Z,96603.00
2023-11-18T01:48:11.490Z,96604.00
2023-11-18T01:49:11.458Z,96603.00
2023-11-18T01:50:21.502Z,96602.00
2023-11-18T01:51:11.441Z,96602.00
2023-11-18T01:52:11.449Z,96603.00
2023-11-18T01:53:11.437Z,96602.00
2023-11-18T01:54:11.428Z,96602.00
2023-11-18T01:55:11.406Z,96599.00
2023-11-18T01:56:11.447Z,96600.00
2023-11-18T01:57:11.396Z,96601.00
2023-11-18T01:58:11.398Z,96604.00
2023-11-18T01:59:11.360Z,96600.00
2023-11-18T02:00:11.370Z,96598.00
2023-11-18T02:01:11.416Z,96596.00
2023-11-18T02:02:11.376Z,96594.00
2023-11-18T02:03:11.487Z,96597.00
2023-11-18T02:04:11.424Z,96598.00
2023-11-18T02:05:11.353Z,96597.00
2023-11-18T02:06:11.334Z,96599.00
2023-11-18T02:07:11.301Z,96601.00
2023-11-18T02:08:11.354Z,96604.00
2023-11-18T02:09:11.286Z,96602.00
2023-11-18T02:10:11.269Z,96602.00
2023-11-18T02:11:11.278Z,96602.00
2023-11-18T02:12:11.265Z,96604.00
2023-11-18T02:13:11.244Z,96605.00
2023-11-18T02:14:11.272Z,96602.00
2023-11-18T02:15:11.506Z,96600.00
2023-11-18T02:16:16.248Z,96598.00
2023-11-18T02:17:11.244Z,96594.00
2023-11-18T02:18:11.349Z,96594.00
2023-11-18T02:19:11.184Z,96593.00
2023-11-18T02:20:11.210Z,96598.00
2023-11-18T02:21:11.180Z,96599.00
2023-11-18T02:22:11.222Z,96601.00
2023-11-18T02:23:11.147Z,96601.00
2023-11-18T02:24:11.169Z,96598.00
2023-11-18T02:25:11.143Z,96597.00
2023-11-18T02:26:11.221Z,96593.00
2023-11-18T02:27:11.129Z,96593.00
2023-11-18T02:28:11.120Z,96592.00
2023-11-18T02:29:11.153Z,96589.00
2023-11-18T02:30:11.105Z,96584.00
2023-11-18T02:31:11.169Z,96585.00
2023-11-18T02:32:11.214Z,96586.00
2023-11-18T02:33:11.290Z,96586.00
2023-11-18T02:34:11.295Z,96588.00
2023-11-18T02:35:12.152Z,96591.00
2023-11-18T02:36:11.342Z,96596.00
2023-11-18T02:37:11.344Z,96598.00
2023-11-18T02:38:11.382Z,96599.00
2023-11-18T02:39:11.313Z,96601.00
2023-11-18T02:40:11.307Z,96600.00
2023-11-18T02:41:11.333Z,96599.00
2023-11-18T02:42:11.298Z,96598.00
2023-11-18T02:43:11.278Z,96596.00
2023-11-18T02:44:11.557Z,96596.00
2023-11-18T02:45:11.369Z,96596.00
2023-11-18T02:46:11.444Z,96595.00
2023-11-18T02:47:11.497Z,96597.00
2023-11-18T02:48:11.623Z,96599.00
2023-11-18T02:49:11.584Z,96603.00
2023-11-18T02:50:11.716Z,96604.00
2023-11-18T02:51:11.681Z,96607.00
2023-11-18T02:52:11.766Z,96610.00
2023-11-18T02:53:11.855Z,96610.00
2023-11-18T02:54:11.945Z,96609.00
2023-11-18T02:55:11.881Z,96608.00
2023-11-18T02:56:11.970Z,96607.00
2023-11-18T02:57:11.989Z,96607.00
2023-11-18T02:58:12.057Z,96607.00
2023-11-18T02:59:12.098Z,96607.00
2023-11-18T03:00:12.120Z,96609.00
2023-11-18T03:01:12.227Z,96607.00
2023-11-18T03:02:12.373Z,96607.00
2023-11-18T03:03:12.389Z,96606.00
2023-11-18T03:04:12.374Z,96609.00
2023-11-18T03:05:12.396Z,96609.00
2023-11-18T03:06:12.441Z,96607.00
2023-11-18T03:07:12.496Z,96607.00
2023-11-18T03:08:12.640Z,96607.00
2023-11-18T03:09:12.584Z,96609.00
2023-11-18T03:10:12.629Z,96612.00
2023-11-18T03:11:12.722Z,96609.00
2023-11-18T03:12:12.732Z,96610.00
2023-11-18T03:13:12.819Z,96611.00
2023-11-18T03:14:12.905Z,96611.00
2023-11-18T03:15:13.047Z,96612.00
2023-11-18T03:16:12.974Z,96612.00
2023-11-18T03:17:13.023Z,96610.00
2023-11-18T03:18:13.093Z,96610.00
2023-11-18T03:19:13.084Z,96609.00
2023-11-18T03:20:13.232Z,96609.00
2023-11-18T03:21:13.219Z,96608.00
2023-11-18T03:22:13.239Z,96608.00
2023-11-18T03:23:13.340Z,96608.00
2023-11-18T03:24:13.332Z,96606.00
2023-11-18T03:25:13.406Z,96606.00
2023-11-18T03:26:13.421Z,96605.00
2023-11-18T03:27:13.478Z,96606.00
2023-11-18T03:28:13.548Z,96608.00
2023-11-18T03:29:13.589Z,96609.00
2023-11-18T03:30:13.654Z,96608.00
2023-11-18T03:31:13.687Z,96608.00
2023-11-18T03:32:13.730Z,96607.00
2023-11-18T03:33:13.890Z,96607.00
2023-11-18T03:34:13.838Z,96608.00
2023-11-18T03:35:13.980Z,96610.00
2023-11-18T03:36:13.968Z,96614.00
2023-11-18T03:37:14.019Z,96615.00
2023-11-18T03:38:14.037Z,96620.00
2023-11-18T03:39:14.086Z,96625.00
2023-11-18T03:40:14.144Z,96628.00
2023-11-18T03:41:14.320Z,96629.00
2023-11-18T03:42:14.229Z,96629.00
2023-11-18T03:43:24.311Z,96627.00
2023-11-18T03:44:14.280Z,96628.00
2023-11-18T03:45:14.282Z,96629.00
2023-11-18T03:46:14.330Z,96632.00
2023-11-18T03:47:14.281Z,96636.00
2023-11-18T03:48:14.230Z,96636.00
2023-11-18T03:49:14.234Z,96638.00
2023-11-18T03:50:14.337Z,96639.00
2023-11-18T03:51:14.212Z,96640.00
2023-11-18T03:52:14.221Z,96642.00
2023-11-18T03:53:14.276Z,96641.00
2023-11-18T03:54:14.190Z,96645.00
2023-11-18T03:55:14.180Z,96644.00
2023-11-18T03:56:14.166Z,96645.00
2023-11-18T03:57:14.204Z,96643.00
2023-11-18T03:58:14.164Z,96644.00
2023-11-18T03:59:14.177Z,96642.00
2023-11-18T04:00:14.157Z,96643.00
2023-11-18T04:01:14.181Z,96643.00
2023-11-18T04:02:14.166Z,96643.00
2023-11-18T04:03:14.177Z,96644.00
2023-11-18T04:04:14.133Z,96646.00
2023-11-18T04:05:14.159Z,96647.00
2023-11-18T04:06:14.075Z,96646.00
2023-11-18T04:07:14.084Z,96650.00
2023-11-18T04:08:14.095Z,96650.00
2023-11-18T04:09:14.103Z,96650.00
2023-11-18T04:10:14.066Z,96649.00
2023-11-18T04:11:14.066Z,96649.00
2023-11-18T04:12:14.051Z,96648.00
2023-11-18T04:13:14.030Z,96651.00
2023-11-18T04:14:14.027Z,96655.00
2023-11-18T04:15:14.014Z,96656.00
2023-11-18T04:16:14.026Z,96657.00
2023-11-18T04:17:14.093Z,96656.00
2023-11-18T04:18:14.056Z,96656.00
2023-11-18T04:19:14.000Z,96658.00
2023-11-18T04:20:14.036Z,96660.00
2023-11-18T04:21:14.041Z,96660.00
2023-11-18T04:22:13.941Z,96662.00
2023-11-18T04:23:13.980Z,96662.00
2023-11-18T04:24:13.925Z,96661.00
2023-11-18T04:25:13.951Z,96661.00
2023-11-18T04:26:13.921Z,96660.00
2023-11-18T04:27:13.908Z,96656.00
2023-11-18T04:28:13.881Z,96653.00
2023-11-18T04:29:13.896Z,96656.00
2023-11-18T04:30:13.987Z,96657.00
2023-11-18T04:31:13.894Z,96655.00
2023-11-18T04:32:13.877Z,96655.00
2023-11-18T04:33:13.857Z,96656.00
2023-11-18T04:34:13.826Z,96660.00
2023-11-18T04:35:14.437Z,96659.00
2023-11-18T04:36:13.828Z,96658.00
2023-11-18T04:37:13.806Z,96659.00
2023-11-18T04:38:13.828Z,96655.00
2023-11-18T04:39:13.786Z,96656.00
2023-11-18T04:40:13.821Z,96652.00
2023-11-18T04:41:13.806Z,96652.00
2023-11-18T04:42:13.765Z,96653.00
2023-11-18T04:43:13.782Z,96654.00
2023-11-18T04:44:13.797Z,96659.00
2023-11-18T04:45:13.753Z,96658.00
2023-11-18T04:46:13.759Z,96658.00
2023-11-18T04:47:13.789Z,96657.00
2023-11-18T04:48:13.811Z,96655.00
2023-11-18T04:49:13.813Z,96657.00
2023-11-18T04:50:13.784Z,96654.00
2023-11-18T04:51:13.744Z,96652.00
2023-11-18T04:52:13.666Z,96654.00
2023-11-18T04:53:13.730Z,96656.00
2023-11-18T04:54:13.675Z,96655.00
2023-11-18T04:55:13.649Z,96659.00
2023-11-18T04:56:13.655Z,96662.00
2023-11-18T04:57:13.634Z,96663.00
2023-11-18T04:58:13.616Z,96663.00
2023-11-18T04:59:13.622Z,96661.00
2023-11-18T05:00:13.605Z,96659.00
2023-11-18T05:01:13.618Z,96657.00
2023-11-18T05:02:13.673Z,96655.00
2023-11-18T05:03:13.604Z,96657.00
2023-11-18T05:04:13.680Z,96654.00
2023-11-18T05:05:13.642Z,96654.00
2023-11-18T05:06:13.552Z,96653.00
2023-11-18T05:07:13.560Z,96652.00
2023-11-18T05:08:13.635Z,96652.00
2023-11-18T05:09:13.549Z,96649.00
2023-11-18T05:10:13.509Z,96650.00
2023-11-18T05:11:13.559Z,96652.00
2023-11-18T05:12:13.509Z,96653.00
2023-11-18T05:13:13.515Z,96652.00
2023-11-18T05:14:13.505Z,96652.00
2023-11-18T05:15:13.480Z,96651.00
2023-11-18T05:16:13.449Z,96651.00
2023-11-18T05:17:13.582Z,96652.00
2023-11-18T05:18:13.538Z,96655.00
2023-11-18T05:19:13.442Z,96657.00
2023-11-18T05:20:13.483Z,96661.00
2023-11-18T05:21:13.431Z,96662.00
2023-11-18T05:22:13.420Z,96659.00
2023-11-18T05:23:13.581Z,96661.00
2023-11-18T05:24:13.398Z,96661.00
2023-11-18T05:25:13.393Z,96662.00
2023-11-18T05:26:13.453Z,96661.00
2023-11-18T05:27:13.390Z,96664.00
2023-11-18T05:28:13.357Z,96666.00
2023-11-18T05:29:13.366Z,96667.00
2023-11-18T05:30:13.364Z,96671.00
2023-11-18T05:31:13.388Z,96673.00
2023-11-18T05:32:13.373Z,96674.00
2023-11-18T05:33:13.378Z,96676.00
2023-11-18T05:34:13.296Z,96677.00
2023-11-18T05:35:13.385Z,96681.00
2023-11-18T05:36:13.285Z,96682.00
2023-11-18T05:37:13.287Z,96681.00
2023-11-18T05:38:13.291Z,96680.00
2023-11-18T05:39:13.275Z,96681.00
2023-11-18T05:40:13.262Z,96682.00
2023-11-18T05:41:13.259Z,96682.00
2023-11-18T05:42:13.227Z,96685.00
2023-11-18T05:43:13.220Z,96682.00
2023-11-18T05:44:13.258Z,96682.00
2023-11-18T05:45:13.226Z,96684.00
2023-11-18T05:46:13.216Z,96682.00
2023-11-18T05:47:13.227Z,96679.00
2023-11-18T05:48:13.194Z,96679.00
2023-11-18T05:49:13.202Z,96678.00
2023-11-18T05:50:13.248Z,96678.00
2023-11-18T05:51:13.173Z,96675.00
2023-11-18T05:52:13.145Z,96676.00
2023-11-18T05:53:13.168Z,96676.00
2023-11-18T05:54:13.126Z,96676.00
2023-11-18T05:55:13.134Z,96678.00
2023-11-18T05:56:13.137Z,96678.00
2023-11-18T05:57:13.121Z,96676.00
2023-11-18T05:58:13.090Z,96675.00
2023-11-18T05:59:13.127Z,96671.00
2023-11-18T06:00:13.083Z,96668.00
2023-11-18T06:01:13.071Z,96667.00
2023-11-18T06:02:13.111Z,96668.00
2023-11-18T06:03:13.164Z,96668.00
2023-11-18T06:04:13.117Z,96669.00
2023-11-18T06:05:13.119Z,96668.00
2023-11-18T06:06:13.066Z,96668.00
2023-11-18T06:07:13.013Z,96669.00
2023-11-18T06:08:13.024Z,96672.00
2023-11-18T06:09:13.024Z,96675.00
2023-11-18T06:10:12.999Z,96676.00
2023-11-18T06:11:13.008Z,96677.00
2023-11-18T06:12:12.965Z,96676.00
2023-11-18T06:13:12.993Z,96680.00
2023-11-18T06:14:12.981Z,96682.00
2023-11-18T06:15:12.963Z,96685.00
2023-11-18T06:16:12.964Z,96684.00
2023-11-18T06:17:13.019Z,96682.00
2023-11-18T06:18:12.927Z,96683.00
2023-11-18T06:19:12.939Z,96684.00
2023-11-18T06:20:12.942Z,96685.00
2023-11-18T06:21:12.898Z,96687.00
2023-11-18T06:22:12.904Z,96688.00
2023-11-18T06:23:12.946Z,96687.00
2023-11-18T06:24:12.864Z,96689.00
2023-11-18T06:25:12.885Z,96689.00
2023-11-18T06:26:12.916Z,96688.00
2023-11-18T06:27:12.844Z,96687.00
2023-11-18T06:28:12.837Z,96688.00
2023-11-18T06:29:16.027Z,96688.00
2023-11-18T06:30:12.826Z,96688.00
2023-11-18T06:31:12.989Z,96692.00
2023-11-18T06:32:12.886Z,96695.00
2023-11-18T06:33:12.911Z,96700.00
2023-11-18T06:34:12.774Z,96700.00
2023-11-18T06:35:12.813Z,96702.00
2023-11-18T06:36:12.761Z,96704.00
2023-11-18T06:37:12.768Z,96705.00
2023-11-18T06:38:12.777Z,96704.00
2023-11-18T06:39:12.745Z,96706.00
2023-11-18T06:40:12.733Z,96705.00
2023-11-18T06:41:12.746Z,96705.00
2023-11-18T06:42:12.907Z,96706.00
2023-11-18T06:43:12.705Z,96703.00
2023-11-18T06:44:12.719Z,96705.00
2023-11-18T06:45:12.682Z,96705.00
2023-11-18T06:46:14.105Z,96706.00
2023-11-18T06:47:12.772Z,96705.00
2023-11-18T06:48:12.758Z,96705.00
2023-11-18T06:49:12.727Z,96704.00
2023-11-18T06:50:12.672Z,96700.00
2023-11-18T06:51:12.625Z,96704.00
2023-11-18T06:52:12.618Z,96707.00
2023-11-18T06:53:12.707Z,96711.00
2023-11-18T06:54:12.604Z,96715.00
2023-11-18T06:55:12.605Z,96714.00
2023-11-18T06:56:12.617Z,96715.00
2023-11-18T06:57:12.594Z,96713.00
2023-11-18T06:58:12.568Z,96712.00
2023-11-18T06:59:12.650Z,96714.00
2023-11-18T07:00:12.681Z,96713.00
2023-11-18T07:01:12.592Z,96714.00
2023-11-18T07:02:12.549Z,96715.00
2023-11-18T07:03:12.556Z,96715.00
2023-11-18T07:04:12.503Z,96715.00
2023-11-18T07:05:12.539Z,96716.00
2023-11-18T07:06:12.504Z,96717.00
2023-11-18T07:07:12.489Z,96717.00
2023-11-18T07:08:12.530Z,96716.00
2023-11-18T07:09:12.475Z,96717.00
2023-11-18T07:10:12.476Z,96716.00
2023-11-18T07:11:12.486Z,96716.00
2023-11-18T07:12:12.436Z,96718.00
2023-11-18T07:13:12.490Z,96717.00
2023-11-18T07:14:12.592Z,96717.00
2023-11-18T07:15:12.442Z,96712.00
2023-11-18T07:16:12.411Z,96712.00
2023-11-18T07:17:12.422Z,96712.00
2023-11-18T07:18:12.455Z,96718.00
2023-11-18T07:19:12.380Z,96720.00
2023-11-18T07:20:12.471Z,96722.00
2023-11-18T07:21:12.369Z,96726.00
2023-11-18T07:22:12.353Z,96725.00
2023-11-18T07:23:12.408Z,96730.00
2023-11-18T07:24:12.386Z,96731.00
2023-11-18T07:25:12.325Z,96730.00
2023-11-18T07:26:12.398Z,96731.00
2023-11-18T07:27:12.311Z,96729.00
2023-11-18T07:28:12.400Z,96729.00
2023-11-18T07:29:12.320Z,96727.00
2023-11-18T07:30:12.309Z,96728.00
2023-11-18T07:31:12.321Z,96724.00
2023-11-18T07:32:12.327Z,96725.00
2023-11-18T07:33:12.317Z,96725.00
2023-11-18T07:34:12.286Z,96725.00
2023-11-18T07:35:12.371Z,96722.00
2023-11-18T07:36:12.232Z,96723.00
2023-11-18T07:37:12.210Z,96725.00
2023-11-18T07:38:12.267Z,96725.00
2023-11-18T07:39:12.205Z,96726.00
2023-11-18T07:40:12.193Z,96726.00
2023-11-18T07:41:12.248Z,96725.00
2023-11-18T07:42:12.184Z,96726.00
2023-11-18T07:43:12.183Z,96726.00
2023-11-18T07:44:12.303Z,96726.00
2023-11-18T07:45:12.207Z,96732.00
2023-11-18T07:46:12.198Z,96732.00
2023-11-18T07:47:12.178Z,96734.00
2023-11-18T07:48:12.139Z,96734.00
2023-11-18T07:49:12.748Z,96732.00
2023-11-18T07:50:12.176Z,96735.00
2023-11-18T07:51:12.135Z,96735.00
2023-11-18T07:52:12.122Z,96735.00
2023-11-18T07:53:12.096Z,96736.00
2023-11-18T07:54:12.092Z,96736.00
2023-11-18T07:55:12.067Z,96736.00
2023-11-18T07:56:12.097Z,96736.00
2023-11-18T07:57:12.130Z,96741.00
2023-11-18T07:58:12.168Z,96740.00
2023-11-18T07:59:12.083Z,96740.00
2023-11-18T08:00:12.016Z,96745.00
2023-11-18T08:01:12.035Z,96746.00
2023-11-18T08:02:12.058Z,96746.00
2023-11-18T08:03:12.080Z,96748.00
2023-11-18T08:04:11.992Z,96748.00
2023-11-18T08:05:12.001Z,96748.00
2023-11-18T08:06:11.963Z,96747.00
2023-11-18T08:07:11.956Z,96749.00
2023-11-18T08:08:11.986Z,96749.00
2023-11-18T08:09:11.943Z,96751.00
2023-11-18T08:10:11.936Z,96752.00
2023-11-18T08:11:11.943Z,96753.00
2023-11-18T08:12:11.914Z,96758.00
2023-11-18T08:13:11.958Z,96760.00
2023-11-18T08:14:11.998Z,96762.00
2023-11-18T08:15:11.866Z,96759.00
2023-11-18T08:16:12.021Z,96758.00
2023-11-18T08:17:11.979Z,96754.00
2023-11-18T08:18:12.016Z,96751.00
2023-11-18T08:19:11.851Z,96753.00
2023-11-18T08:20:11.861Z,96752.00
2023-11-18T08:21:11.827Z,96757.00
2023-11-18T08:22:11.813Z,96752.00
2023-11-18T08:23:11.849Z,96753.00
2023-11-18T08:24:11.806Z,96752.00
2023-11-18T08:25:11.778Z,96750.00
2023-11-18T08:26:21.848Z,96748.00
2023-11-18T08:27:11.768Z,96745.00
2023-11-18T08:28:11.765Z,96745.00
2023-11-18T08:29:11.789Z,96744.00
2023-11-18T08:30:11.768Z,96745.00
2023-11-18T08:31:11.761Z,96744.00
2023-11-18T08:32:11.771Z,96744.00
2023-11-18T08:33:11.761Z,96747.00
2023-11-18T08:34:11.743Z,96747.00
2023-11-18T08:35:11.756Z,96746.00
2023-11-18T08:36:11.702Z,96744.00
2023-11-18T08:37:11.676Z,96746.00
2023-11-18T08:38:11.718Z,96744.00
2023-11-18T08:39:12.464Z,96744.00
2023-11-18T08:40:11.657Z,96744.00
2023-11-18T08:41:11.685Z,96745.00
2023-11-18T08:42:16.654Z,96747.00
2023-11-18T08:43:11.628Z,96748.00
2023-11-18T08:44:21.971Z,96748.00
2023-11-18T08:45:12.610Z,96748.00
2023-11-18T08:46:11.660Z,96744.00
2023-11-18T08:47:11.599Z,96743.00
2023-11-18T08:48:11.674Z,96744.00
2023-11-18T08:49:11.580Z,96743.00
2023-11-18T08:50:11.602Z,96745.00
2023-11-18T08:51:14.169Z,96744.00
2023-11-18T08:52:11.803Z,96745.00
2023-11-18T08:53:11.903Z,96746.00
2023-11-18T08:54:11.791Z,96751.00
2023-11-18T08:55:11.772Z,96753.00
2023-11-18T08:56:11.793Z,96753.00
2023-11-18T08:57:11.746Z,96757.00
2023-11-18T08:58:11.748Z,96759.00
2023-11-18T08:59:11.842Z,96758.00
2023-11-18T09:00:11.810Z,96763.00
2023-11-18T09:01:11.945Z,96764.00
2023-11-18T09:02:11.987Z,96767.00
2023-11-18T09:03:12.049Z,96768.00
2023-11-18T09:04:12.076Z,96768.00
2023-11-18T09:05:12.119Z,96766.00
2023-11-18T09:06:12.104Z,96768.00
2023-11-18T09:07:12.155Z,96769.00
2023-11-18T09:08:12.265Z,96768.00
2023-11-18T09:09:12.311Z,96768.00
2023-11-18T09:10:12.304Z,96771.00
2023-11-18T09:11:12.381Z,96772.00
2023-11-18T09:12:12.405Z,96771.00
2023-11-18T09:13:12.460Z,96766.00
2023-11-18T09:14:12.528Z,96765.00
2023-11-18T09:15:12.544Z,96764.00
2023-11-18T09:16:12.616Z,96765.00
2023-11-18T09:17:12.672Z,96765.00
2023-11-18T09:18:12.804Z,96762.00
2023-11-18T09:19:12.742Z,96763.00
2023-11-18T09:20:12.842Z,96763.00
2023-11-18T09:21:12.853Z,96758.00
2023-11-18T09:22:12.905Z,96757.00
2023-11-18T09:23:23.111Z,96756.00
2023-11-18T09:24:12.938Z,96755.00
2023-11-18T09:25:12.996Z,96757.00
2023-11-18T09:26:12.987Z,96755.00
2023-11-18T09:27:12.917Z,96752.00
2023-11-18T09:28:12.906Z,96750.00
2023-11-18T09:29:12.959Z,96752.00
2023-11-18T09:30:12.895Z,96752.00
2023-11-18T09:31:13.372Z,96751.00
2023-11-18T09:32:12.977Z,96748.00
2023-11-18T09:33:13.006Z,96748.00
2023-11-18T09:34:12.867Z,96749.00
2023-11-18T09:35:12.846Z,96747.00
2023-11-18T09:36:12.858Z,96751.00
2023-11-18T09:37:12.825Z,96748.00
2023-11-18T09:38:12.854Z,96750.00
2023-11-18T09:39:12.812Z,96749.00
2023-11-18T09:40:12.965Z,96751.00
2023-11-18T09:41:12.966Z,96752.00
2023-11-18T09:42:12.784Z,96755.00
2023-11-18T09:43:12.836Z,96753.00
2023-11-18T09:44:12.798Z,96753.00
2023-11-18T09:45:12.770Z,96755.00
2023-11-18T09:46:12.894Z,96756.00
2023-11-18T09:47:12.773Z,96754.00
2023-11-18T09:48:12.753Z,96754.00
2023-11-18T09:49:12.725Z,96753.00
2023-11-18T09:50:12.728Z,96755.00
2023-11-18T09:51:12.757Z,96756.00
2023-11-18T09:52:12.696Z,96758.00
2023-11-18T09:53:12.731Z,96755.00
2023-11-18T09:54:12.687Z,96753.00
2023-11-18T09:55:12.691Z,96749.00
2023-11-18T09:56:12.707Z,96749.00
2023-11-18T09:57:12.654Z,96746.00
2023-11-18T09:58:12.651Z,96744.00
2023-11-18T09:59:12.666Z,96742.00
2023-11-18T10:00:12.702Z,96740.00
2023-11-18T10:01:12.617Z,96739.00
2023-11-18T10:02:12.707Z,96738.00
2023-11-18T10:03:12.629Z,96736.00
2023-11-18T10:04:12.610Z,96736.00
2023-11-18T10:05:12.600Z,96736.00
2023-11-18T10:06:12.567Z,96737.00
2023-11-18T10:07:12.645Z,96733.00
2023-11-18T10:08:12.584Z,96733.00
2023-11-18T10:09:12.550Z,96731.00
2023-11-18T10:10:12.531Z,96730.00
2023-11-18T10:11:12.559Z,96728.00
2023-11-18T10:12:12.536Z,96727.00
2023-11-18T10:13:12.511Z,96727.00
2023-11-18T10:14:12.583Z,96724.00
2023-11-18T10:15:12.513Z,96723.00
2023-11-18T10:16:12.478Z,96720.00
2023-11-18T10:17:12.509Z,96720.00
2023-11-18T10:18:12.530Z,96720.00
2023-11-18T10:19:12.449Z,96721.00
2023-11-18T10:20:12.505Z,96723.00
2023-11-18T10:21:12.426Z,96723.00
2023-11-18T10:22:12.434Z,96722.00
2023-11-18T10:23:12.724Z,96722.00
2023-11-18T10:24:12.412Z,96724.00
2023-11-18T10:25:12.393Z,96724.00
2023-11-18T10:26:12.469Z,96723.00
2023-11-18T10:27:12.384Z,96717.00
2023-11-18T10:28:12.379Z,96717.00
2023-11-18T10:29:12.366Z,96716.00
2023-11-18T10:30:12.372Z,96715.00
2023-11-18T10:31:12.369Z,96711.00
2023-11-18T10:32:12.415Z,96709.00
2023-11-18T10:33:12.471Z,96707.00
2023-11-18T10:34:12.362Z,96709.00
2023-11-18T10:35:12.379Z,96708.00
2023-11-18T10:36:22.368Z,96708.00
2023-11-18T10:37:12.513Z,96707.00
2023-11-18T10:38:12.376Z,96706.00
2023-11-18T10:39:12.276Z,96709.00
2023-11-18T10:40:12.273Z,96715.00
2023-11-18T10:41:12.293Z,96717.00
2023-11-18T10:42:12.266Z,96719.00
2023-11-18T10:43:12.244Z,96717.00
2023-11-18T10:44:12.287Z,96715.00
2023-11-18T10:45:12.224Z,96711.00
2023-11-18T10:46:12.246Z,96707.00
2023-11-18T10:47:12.235Z,96705.00
2023-11-18T10:48:12.276Z,96702.00
2023-11-18T10:49:12.184Z,96704.00
2023-11-18T10:50:12.277Z,96704.00
2023-11-18T10:51:12.178Z,96703.00
2023-11-18T10:52:22.204Z,96702.00
2023-11-18T10:53:12.176Z,96700.00
2023-11-18T10:54:12.155Z,96699.00
2023-11-18T10:55:12.235Z,96694.00
2023-11-18T10:56:12.172Z,96691.00
2023-11-18T10:57:12.120Z,96689.00
2023-11-18T10:58:12.156Z,96688.00
2023-11-18T10:59:12.122Z,96686.00
2023-11-18T11:00:12.103Z,96687.00
2023-11-18T11:01:12.082Z,96686.00
2023-11-18T11:02:12.148Z,96687.00
2023-11-18T11:03:12.140Z,96685.00
2023-11-18T11:04:12.074Z,96682.00
2023-11-18T11:05:14.414Z,96679.00
2023-11-18T11:06:12.148Z,96673.00
2023-11-18T11:07:12.053Z,96674.00
2023-11-18T11:08:24.518Z,96674.00
2023-11-18T11:09:13.047Z,96672.00
2023-11-18T11:10:12.019Z,96672.00
2023-11-18T11:11:12.024Z,96672.00
2023-11-18T11:12:11.993Z,96675.00
2023-11-18T11:13:11.992Z,96678.00
2023-11-18T11:14:12.118Z,96680.00
2023-11-18T11:15:11.970Z,96681.00
2023-11-18T11:16:11.953Z,96682.00
2023-11-18T11:17:11.986Z,96686.00
2023-11-18T11:18:11.982Z,96690.00
2023-11-18T11:19:11.932Z,96690.00
2023-11-18T11:20:11.914Z,96691.00
2023-11-18T11:21:11.910Z,96692.00
2023-11-18T11:22:11.914Z,96694.00
2023-11-18T11:23:11.895Z,96692.00
2023-11-18T11:24:11.891Z,96694.00
2023-11-18T11:25:11.874Z,96696.00
2023-11-18T11:26:12.009Z,96696.00
2023-11-18T11:27:11.850Z,96694.00
2023-11-18T11:28:11.852Z,96696.00
2023-11-18T11:29:11.872Z,96694.00
2023-11-18T11:30:12.012Z,96694.00
2023-11-18T11:31:11.845Z,96695.00
2023-11-18T11:32:11.814Z,96693.00
2023-11-18T11:33:11.808Z,96690.00
2023-11-18T11:34:11.896Z,96688.00
2023-11-18T11:35:11.822Z,96688.00
2023-11-18T11:36:11.786Z,96691.00
2023-11-18T11:37:11.773Z,96691.00
2023-11-18T11:38:11.826Z,96696.00
2023-11-18T11:39:11.758Z,96697.00
2023-11-18T11:40:11.736Z,96696.00
2023-11-18T11:41:11.765Z,96695.00
2023-11-18T11:42:11.709Z,96695.00
2023-11-18T11:43:11.804Z,96694.00
2023-11-18T11:44:11.739Z,96695.00